Terminal Aerodrome Forecast
Issued by NWS

Home | Current Version | Previous Version | Text Only | Print | Product List | Glossary On
Versions: 1 2 3 4 5 6 7 8 9 10 11 12
000
FTUS41 KPBZ 301738
TAFBVI
TAF
KBVI 301738Z 3018/3118 30006KT P6SM SCT150
     FM310900 00000KT 5SM BR FEW250
     FM311300 02005KT P6SM FEW250
      AMD NOT SKED=

USA.gov is the U.S. government's official web portal to all federal, state and local government web resources and services.